Time;durP1;ratioP1;P1;durP2;ratioP2;P2;SDS_P1;SDS_P2;PMS_P1;PMS_P2;Temp;Humidity;BMP_temperature;BMP_pressure;BME280_temperature;BME280_humidity;BME280_pressure;Samples;Min_cycle;Max_cycle;Signal;HPM_P1;HPM_P2
2022/08/20 00:00:24;;;;;;;0.00;0.00;;;15.70;50.10;;;;;;5109574;28;20030;-71
2022/08/20 00:02:56;;;;;;;0.00;0.00;;;15.80;50.00;;;;;;5110874;28;20032;-72
2022/08/20 00:05:27;;;;;;;13.07;12.30;;;15.70;49.90;;;;;;5112020;28;20030;-72
2022/08/20 00:07:53;;;;;;;0.00;0.00;;;15.70;50.90;;;;;;5113674;28;20438;-72
2022/08/20 00:10:21;;;;;;;2.17;0.13;;;15.70;50.30;;;;;;5116887;28;20058;-72
2022/08/20 00:12:49;;;;;;;0.00;0.00;;;15.70;50.50;;;;;;5116878;28;20031;-72
2022/08/20 00:15:20;;;;;;;0.00;0.00;;;15.60;50.70;;;;;;5116648;28;20027;-72
2022/08/20 00:17:50;;;;;;;0.00;0.00;;;15.60;50.80;;;;;;5116789;28;20026;-73
2022/08/20 00:20:18;;;;;;;0.00;0.00;;;15.60;51.00;;;;;;5113972;28;20110;-72
2022/08/20 00:22:45;;;;;;;0.00;0.00;;;15.60;51.30;;;;;;5116351;28;20020;-71
2022/08/20 00:25:12;;;;;;;0.00;0.00;;;15.50;52.20;;;;;;5115253;28;20030;-72
2022/08/20 00:27:38;;;;;;;0.00;0.00;;;15.30;51.80;;;;;;5111662;28;20027;-71
2022/08/20 00:30:07;;;;;;;0.00;0.00;;;15.40;51.80;;;;;;5112588;28;20028;-73
2022/08/20 00:32:51;;;;;;;0.00;0.00;;;15.40;51.90;;;;;;5102047;28;20047;-71
2022/08/20 00:35:20;;;;;;;0.00;0.00;;;15.50;51.80;;;;;;5096546;28;20028;-72
2022/08/20 00:37:47;;;;;;;0.00;0.00;;;15.40;51.70;;;;;;5116423;28;20023;-72
2022/08/20 00:40:16;;;;;;;0.00;0.00;;;15.20;52.60;;;;;;5116314;28;20030;-72
2022/08/20 00:42:50;;;;;;;0.20;0.20;;;15.30;52.30;;;;;;5116929;28;20463;-73
2022/08/20 00:45:19;;;;;;;0.00;0.00;;;15.60;51.70;;;;;;5116448;28;20015;-73
2022/08/20 00:47:46;;;;;;;0.20;0.20;;;15.60;51.20;;;;;;5116719;28;20158;-72
2022/08/20 00:50:20;;;;;;;0.00;0.00;;;15.70;50.90;;;;;;5111707;28;20031;-73
2022/08/20 00:52:49;;;;;;;0.00;0.00;;;15.80;50.70;;;;;;5116212;28;20023;-73
2022/08/20 00:55:18;;;;;;;0.00;0.00;;;15.80;50.30;;;;;;5116767;28;20482;-73
2022/08/20 00:57:52;;;;;;;0.00;0.00;;;16.00;50.20;;;;;;5115985;28;20088;-71
2022/08/20 01:00:38;;;;;;;0.00;0.00;;;16.00;50.20;;;;;;5111900;28;20032;-72
2022/08/20 01:03:10;;;;;;;0.00;0.00;;;16.20;50.00;;;;;;5112605;28;20024;-72
2022/08/20 01:05:43;;;;;;;0.00;0.00;;;16.30;49.60;;;;;;5112465;28;20402;-72
2022/08/20 01:08:10;;;;;;;0.00;0.00;;;16.50;48.80;;;;;;5113527;28;20032;-72
2022/08/20 01:10:39;;;;;;;0.45;0.25;;;16.60;48.50;;;;;;5112977;28;20023;-73
2022/08/20 01:13:10;;;;;;;0.00;0.00;;;16.80;48.00;;;;;;5113632;28;20030;-73
2022/08/20 01:15:40;;;;;;;0.00;0.00;;;17.10;47.80;;;;;;5114751;28;20474;-73
2022/08/20 01:18:12;;;;;;;1.73;1.65;;;17.20;47.30;;;;;;5114697;28;20418;-73
2022/08/20 01:21:01;;;;;;;0.00;0.00;;;17.30;47.10;;;;;;5111578;28;20024;-73
2022/08/20 01:23:33;;;;;;;0.00;0.00;;;17.50;47.20;;;;;;5113398;28;20035;-73
2022/08/20 01:26:23;;;;;;;0.00;0.00;;;17.20;46.90;;;;;;5109787;28;20497;-73
2022/08/20 01:28:52;;;;;;;0.00;0.00;;;17.30;47.30;;;;;;5107098;28;20061;-73
2022/08/20 01:31:22;;;;;;;0.00;0.00;;;17.70;46.20;;;;;;5107368;28;20023;-73
2022/08/20 01:33:50;;;;;;;0.00;0.00;;;18.10;45.20;;;;;;5109925;28;20038;-74
2022/08/20 01:36:19;;;;;;;0.30;0.30;;;18.40;44.20;;;;;;5109695;28;20058;-73
2022/08/20 01:38:46;;;;;;;0.00;0.00;;;18.20;44.70;;;;;;5090009;28;20149;-73
2022/08/20 01:41:24;;;;;;;0.00;0.00;;;18.40;44.20;;;;;;5111685;28;20027;-72
2022/08/20 01:43:55;;;;;;;0.05;0.05;;;18.80;43.80;;;;;;5112024;28;20031;-72
2022/08/20 01:46:37;;;;;;;0.00;0.00;;;18.90;43.80;;;;;;5112369;28;20020;-72
2022/08/20 01:49:27;;;;;;;0.00;0.00;;;19.10;43.20;;;;;;5103940;28;20061;-72
2022/08/20 01:51:56;;;;;;;0.00;0.00;;;19.70;42.00;;;;;;5112077;28;20069;-73
2022/08/20 01:54:24;;;;;;;0.00;0.00;;;19.10;42.50;;;;;;5113917;28;20068;-71
2022/08/20 01:56:59;;;;;;;3.28;3.00;;;19.40;42.30;;;;;;5111731;28;20434;-73
2022/08/20 01:59:25;;;;;;;0.00;0.00;;;19.00;42.80;;;;;;5113101;28;20512;-71
2022/08/20 02:01:52;;;;;;;0.00;0.00;;;19.10;43.20;;;;;;5101049;28;20031;-71
2022/08/20 02:04:18;;;;;;;1.45;1.45;;;18.60;43.30;;;;;;5113845;28;20035;-72
2022/08/20 02:06:49;;;;;;;0.00;0.00;;;19.60;42.80;;;;;;5113695;28;20027;-72
2022/08/20 02:09:15;;;;;;;0.05;0.05;;;20.80;40.40;;;;;;5113528;28;20072;-73
2022/08/20 02:11:41;;;;;;;0.43;0.43;;;21.70;38.10;;;;;;5114237;28;20062;-73
2022/08/20 02:14:09;;;;;;;3.53;0.38;;;22.30;36.80;;;;;;5094507;28;20549;-73
2022/08/20 02:16:38;;;;;;;0.00;0.00;;;22.80;35.70;;;;;;5113558;28;20020;-73
2022/08/20 02:19:28;;;;;;;0.00;0.00;;;23.10;34.80;;;;;;5113668;28;20130;-72
2022/08/20 02:21:57;;;;;;;0.00;0.00;;;22.70;36.40;;;;;;5106672;28;20020;-72
2022/08/20 02:24:23;;;;;;;0.00;0.00;;;22.50;35.90;;;;;;5113610;28;20072;-72
2022/08/20 02:26:51;;;;;;;0.00;0.00;;;21.50;37.40;;;;;;5113319;28;20059;-72
2022/08/20 02:29:17;;;;;;;0.00;0.00;;;21.80;37.60;;;;;;5111172;28;20019;-74
2022/08/20 02:31:45;;;;;;;8.95;0.30;;;22.90;36.10;;;;;;5107154;27;20043;-73
2022/08/20 02:34:13;;;;;;;0.00;0.00;;;23.40;35.30;;;;;;5110738;28;20691;-73
2022/08/20 02:36:40;;;;;;;0.30;0.30;;;22.40;36.00;;;;;;5113152;28;20028;-73
2022/08/20 02:39:11;;;;;;;2.63;1.63;;;21.90;36.80;;;;;;5109753;28;20036;-72
2022/08/20 02:41:39;;;;;;;0.00;0.00;;;22.00;37.20;;;;;;5107840;28;20368;-72
2022/08/20 02:44:06;;;;;;;1.65;1.50;;;21.90;36.70;;;;;;5111444;28;20094;-73
2022/08/20 02:46:34;;;;;;;0.73;0.65;;;20.70;37.50;;;;;;5101150;28;20016;-73
2022/08/20 02:49:00;;;;;;;0.00;0.00;;;20.80;37.30;;;;;;5101406;28;20281;-73
2022/08/20 02:51:27;;;;;;;0.00;0.00;;;20.20;38.60;;;;;;5111100;28;20030;-73
2022/08/20 02:53:53;;;;;;;7.28;5.28;;;20.90;38.60;;;;;;5107549;28;20024;-73
2022/08/20 02:56:19;;;;;;;0.00;0.00;;;20.90;37.60;;;;;;5098088;28;20515;-74
2022/08/20 02:58:46;;;;;;;0.10;0.00;;;21.60;36.70;;;;;;5093925;28;20467;-73
2022/08/20 03:01:15;;;;;;;0.00;0.00;;;21.60;36.80;;;;;;5111635;28;20438;-72
2022/08/20 03:03:44;;;;;;;0.00;0.00;;;22.70;35.00;;;;;;5107851;28;20051;-72
2022/08/20 03:06:11;;;;;;;0.00;0.00;;;23.80;33.30;;;;;;5109317;28;20026;-74
2022/08/20 03:08:39;;;;;;;0.32;0.32;;;24.40;32.10;;;;;;5113038;28;20039;-73
2022/08/20 03:11:06;;;;;;;0.00;0.00;;;23.80;33.00;;;;;;5108291;28;20019;-74
2022/08/20 03:13:32;;;;;;;0.00;0.00;;;23.70;33.20;;;;;;5109882;28;20020;-73
2022/08/20 03:16:01;;;;;;;0.00;0.00;;;22.70;34.50;;;;;;5097403;28;20040;-73
2022/08/20 03:18:32;;;;;;;0.08;0.08;;;21.70;37.10;;;;;;5103934;28;20034;-73
2022/08/20 03:20:59;;;;;;;0.00;0.00;;;21.70;36.50;;;;;;5102782;28;20422;-72
2022/08/20 03:23:28;;;;;;;0.00;0.00;;;21.70;36.40;;;;;;5107778;28;20106;-74
2022/08/20 03:25:54;;;;;;;0.00;0.00;;;21.80;36.00;;;;;;5108269;28;20031;-71
2022/08/20 03:28:20;;;;;;;0.00;0.00;;;21.20;36.40;;;;;;5107256;28;20372;-73
2022/08/20 03:30:47;;;;;;;0.00;0.00;;;21.00;37.80;;;;;;5107504;28;20023;-73
2022/08/20 03:33:15;;;;;;;0.00;0.00;;;21.00;37.10;;;;;;5108071;28;20024;-73
2022/08/20 03:35:41;;;;;;;9.15;7.78;;;21.00;37.50;;;;;;5110876;28;20039;-73
2022/08/20 03:38:12;;;;;;;0.20;0.10;;;21.00;37.50;;;;;;5111119;28;20031;-74
2022/08/20 03:40:38;;;;;;;0.00;0.00;;;20.60;37.90;;;;;;5110728;28;20020;-73
2022/08/20 03:43:07;;;;;;;0.00;0.00;;;20.60;38.30;;;;;;5112438;28;20016;-74
2022/08/20 03:45:35;;;;;;;0.10;0.10;;;20.40;39.20;;;;;;5116301;28;20016;-73
2022/08/20 03:48:03;;;;;;;0.00;0.00;;;20.40;38.70;;;;;;5116887;28;20023;-73
2022/08/20 03:50:31;;;;;;;0.00;0.00;;;20.40;39.20;;;;;;5117012;28;20038;-72
2022/08/20 03:52:58;;;;;;;0.20;0.20;;;19.80;40.00;;;;;;5117871;28;20030;-72
2022/08/20 03:55:27;;;;;;;1.20;1.20;;;19.40;40.10;;;;;;5114485;28;20062;-72
2022/08/20 03:57:57;;;;;;;0.00;0.00;;;19.50;40.40;;;;;;5113738;28;20395;-72
2022/08/20 04:00:30;;;;;;;0.00;0.00;;;19.70;39.80;;;;;;5113826;28;20365;-72
2022/08/20 04:02:56;;;;;;;0.00;0.00;;;20.00;39.30;;;;;;5112918;28;20036;-73
2022/08/20 04:05:24;;;;;;;1.75;1.65;;;20.20;38.30;;;;;;5110802;28;20034;-72
2022/08/20 04:07:50;;;;;;;0.00;0.00;;;19.90;39.40;;;;;;5115141;28;20106;-73
2022/08/20 04:10:17;;;;;;;0.00;0.00;;;19.20;40.60;;;;;;5113384;28;20527;-72
2022/08/20 04:12:43;;;;;;;0.55;0.50;;;19.20;40.80;;;;;;5114180;28;20346;-73
2022/08/20 04:15:12;;;;;;;0.38;0.10;;;19.60;40.20;;;;;;5114363;28;20051;-72
2022/08/20 04:17:41;;;;;;;0.38;0.38;;;19.80;39.60;;;;;;5114542;28;20027;-72
2022/08/20 04:20:09;;;;;;;0.93;0.93;;;20.20;40.30;;;;;;5115611;28;20068;-74
2022/08/20 04:22:36;;;;;;;0.00;0.00;;;20.10;40.10;;;;;;5113769;28;20020;-74
2022/08/20 04:25:10;;;;;;;0.10;0.10;;;19.90;41.70;;;;;;5114962;28;20374;-74
2022/08/20 04:27:37;;;;;;;0.00;0.00;;;19.80;41.40;;;;;;5114695;28;20016;-74
2022/08/20 04:30:05;;;;;;;1.27;1.27;;;19.80;41.20;;;;;;5111493;28;20028;-73
2022/08/20 04:32:31;;;;;;;0.25;0.13;;;19.80;41.30;;;;;;5112317;28;20059;-74
2022/08/20 04:34:59;;;;;;;0.80;0.80;;;19.50;41.10;;;;;;5112955;28;20031;-74
2022/08/20 04:37:25;;;;;;;3.35;2.92;;;19.30;42.80;;;;;;5108913;28;20062;-74
2022/08/20 04:42:37;;;;;;;2.83;2.63;;;19.60;40.90;;;;;;5112463;28;20137;-73
2022/08/20 04:45:05;;;;;;;0.00;0.00;;;19.50;41.50;;;;;;5107501;27;20065;-73
2022/08/20 04:47:32;;;;;;;0.00;0.00;;;19.50;41.50;;;;;;5109113;28;20673;-72
2022/08/20 04:49:59;;;;;;;4.38;1.55;;;19.40;41.80;;;;;;5109290;28;20065;-73
2022/08/20 04:52:27;;;;;;;0.65;0.65;;;19.50;42.70;;;;;;5108644;28;20030;-75
2022/08/20 04:54:55;;;;;;;0.00;0.00;;;19.40;42.00;;;;;;5108584;28;20028;-74
2022/08/20 04:57:24;;;;;;;0.00;0.00;;;19.30;42.50;;;;;;5111193;28;20054;-72
2022/08/20 04:59:54;;;;;;;0.05;0.05;;;18.90;43.30;;;;;;5111191;28;20051;-73
2022/08/20 05:02:21;;;;;;;1.85;1.75;;;19.30;43.70;;;;;;5112144;28;20023;-73
2022/08/20 05:04:48;;;;;;;0.00;0.00;;;19.40;42.20;;;;;;5110758;28;20028;-73
2022/08/20 05:07:17;;;;;;;0.00;0.00;;;19.30;42.80;;;;;;5111721;27;20027;-73
2022/08/20 05:09:43;;;;;;;11.80;6.82;;;19.70;42.40;;;;;;5115548;28;20059;-73
2022/08/20 05:12:11;;;;;;;0.00;0.00;;;19.90;41.40;;;;;;5111854;28;20023;-75
2022/08/20 05:14:37;;;;;;;1.63;1.55;;;20.20;41.10;;;;;;5110543;28;20080;-74
2022/08/20 05:17:05;;;;;;;9.80;3.08;;;19.80;42.80;;;;;;5112875;28;20028;-73
2022/08/20 05:19:36;;;;;;;0.00;0.00;;;19.30;44.30;;;;;;5114119;28;20050;-72
2022/08/20 05:22:03;;;;;;;15.00;4.28;;;19.40;44.50;;;;;;5114165;28;20364;-72
2022/08/20 05:24:29;;;;;;;0.40;0.40;;;19.70;43.20;;;;;;5112959;28;20073;-73
2022/08/20 05:26:56;;;;;;;1.17;0.95;;;19.60;42.50;;;;;;5114109;28;20020;-74
2022/08/20 05:29:23;;;;;;;1.02;0.10;;;19.50;43.10;;;;;;5111184;28;20405;-74
2022/08/20 05:31:49;;;;;;;0.00;0.00;;;20.00;42.40;;;;;;5112029;28;20133;-73
2022/08/20 05:34:15;;;;;;;0.00;0.00;;;20.10;40.50;;;;;;5112698;28;20026;-74
2022/08/20 05:36:47;;;;;;;0.70;0.20;;;20.10;41.20;;;;;;5115258;28;20118;-73
2022/08/20 05:39:14;;;;;;;0.00;0.00;;;20.50;41.60;;;;;;5114165;28;20476;-73
2022/08/20 05:41:41;;;;;;;0.90;0.90;;;20.60;40.50;;;;;;5114629;28;20414;-73
2022/08/20 05:44:09;;;;;;;0.10;0.10;;;20.70;40.80;;;;;;5112316;28;20072;-73
2022/08/20 05:46:39;;;;;;;0.00;0.00;;;20.90;41.00;;;;;;5113093;28;20019;-73
2022/08/20 05:49:12;;;;;;;0.00;0.00;;;20.70;41.40;;;;;;5116919;27;20035;-73
2022/08/20 05:51:38;;;;;;;0.00;0.00;;;21.30;40.60;;;;;;5113748;28;20028;-73
2022/08/20 05:54:06;;;;;;;0.00;0.00;;;21.90;39.60;;;;;;5113162;28;20027;-73
2022/08/20 05:56:32;;;;;;;6.57;6.00;;;22.40;38.40;;;;;;5112404;27;20062;-73
2022/08/20 05:59:05;;;;;;;0.10;0.10;;;22.80;37.70;;;;;;5114246;27;20027;-74
2022/08/20 06:01:34;;;;;;;0.00;0.00;;;21.50;39.20;;;;;;5112851;28;20016;-73
2022/08/20 06:06:49;;;;;;;11.77;1.85;;;21.70;41.50;;;;;;5113891;28;20064;-74
2022/08/20 06:09:18;;;;;;;0.10;0.10;;;21.80;39.70;;;;;;5113131;28;20107;-74
2022/08/20 06:11:44;;;;;;;0.35;0.17;;;21.70;40.20;;;;;;5112528;28;20024;-72
2022/08/20 06:14:10;;;;;;;0.00;0.00;;;21.30;40.00;;;;;;5112716;28;20095;-74
2022/08/20 06:16:36;;;;;;;0.00;0.00;;;21.70;39.40;;;;;;5113817;28;20016;-74
2022/08/20 06:19:03;;;;;;;1.55;0.85;;;21.60;40.10;;;;;;5112975;28;20145;-73
2022/08/20 06:21:29;;;;;;;0.00;0.00;;;22.20;38.80;;;;;;5109024;28;20503;-73
2022/08/20 06:23:55;;;;;;;0.00;0.00;;;22.60;37.60;;;;;;5110292;28;20035;-73
2022/08/20 06:26:22;;;;;;;0.00;0.00;;;22.90;37.50;;;;;;5112479;28;20047;-72
2022/08/20 06:28:48;;;;;;;0.00;0.00;;;23.20;37.50;;;;;;5111356;28;20027;-73
2022/08/20 06:31:14;;;;;;;0.00;0.00;;;23.10;37.50;;;;;;5107356;28;20042;-72
2022/08/20 06:33:41;;;;;;;0.00;0.00;;;23.10;36.50;;;;;;5107344;28;20046;-72
2022/08/20 06:36:07;;;;;;;0.00;0.00;;;22.70;36.90;;;;;;5112134;28;20035;-72
2022/08/20 06:38:33;;;;;;;0.00;0.00;;;22.70;38.10;;;;;;5109356;28;20024;-72
2022/08/20 06:41:00;;;;;;;0.00;0.00;;;23.30;37.00;;;;;;5105757;28;20028;-72
2022/08/20 06:43:26;;;;;;;0.13;0.10;;;23.30;36.70;;;;;;5109341;28;20077;-72
2022/08/20 06:45:56;;;;;;;0.00;0.00;;;23.20;36.50;;;;;;5110153;28;20364;-72
2022/08/20 06:48:23;;;;;;;0.00;0.00;;;22.60;37.30;;;;;;5109712;28;20036;-72
2022/08/20 06:50:49;;;;;;;0.00;0.00;;;21.60;38.40;;;;;;5106825;28;20051;-73
2022/08/20 06:53:24;;;;;;;0.17;0.17;;;21.00;39.80;;;;;;5108650;28;20027;-73
2022/08/20 06:55:53;;;;;;;0.35;0.17;;;20.90;39.80;;;;;;5112048;28;20026;-74
2022/08/20 06:58:19;;;;;;;0.00;0.00;;;20.60;40.60;;;;;;5070495;28;20393;-73
2022/08/20 07:00:46;;;;;;;0.00;0.00;;;21.00;40.60;;;;;;5068659;28;20076;-73
2022/08/20 07:03:13;;;;;;;0.00;0.00;;;21.00;40.50;;;;;;5069600;28;20024;-73
2022/08/20 07:05:42;;;;;;;0.00;0.00;;;21.10;40.70;;;;;;5066909;28;20016;-72
2022/08/20 07:08:17;;;;;;;0.00;0.00;;;20.90;41.10;;;;;;5066701;28;20592;-73
2022/08/20 07:10:44;;;;;;;0.00;0.00;;;21.00;41.10;;;;;;5060843;28;20119;-74
2022/08/20 07:13:15;;;;;;;0.00;0.00;;;21.50;39.80;;;;;;5065969;28;20028;-74
2022/08/20 07:15:42;;;;;;;0.00;0.00;;;22.10;38.70;;;;;;5067419;28;20484;-73
2022/08/20 07:18:11;;;;;;;0.00;0.00;;;22.30;38.30;;;;;;5069715;28;20109;-73
2022/08/20 07:20:39;;;;;;;0.50;0.20;;;22.50;38.10;;;;;;5067345;28;20025;-73
2022/08/20 07:23:07;;;;;;;0.00;0.00;;;22.50;38.20;;;;;;5066342;28;20308;-73
2022/08/20 07:25:33;;;;;;;0.00;0.00;;;22.40;38.30;;;;;;5071218;28;20035;-74
2022/08/20 07:28:04;;;;;;;0.20;0.20;;;22.70;38.10;;;;;;5070435;28;20454;-73
2022/08/20 07:33:15;;;;;;;0.00;0.00;;;23.00;37.20;;;;;;5067316;28;20534;-72
2022/08/20 07:35:47;;;;;;;0.00;0.00;;;23.00;36.80;;;;;;5068692;28;20061;-73
2022/08/20 07:38:23;;;;;;;0.00;0.00;;;22.90;36.80;;;;;;5069330;28;20028;-73
2022/08/20 07:40:50;;;;;;;0.00;0.00;;;22.80;37.00;;;;;;5062698;28;20147;-73
2022/08/20 07:43:16;;;;;;;0.00;0.00;;;23.00;36.70;;;;;;5070286;28;20452;-73
2022/08/20 07:45:43;;;;;;;0.00;0.00;;;22.30;37.90;;;;;;5072009;28;20457;-74
2022/08/20 07:48:12;;;;;;;0.00;0.00;;;22.70;37.20;;;;;;5068028;28;20143;-72
2022/08/20 07:50:40;;;;;;;0.70;0.70;;;22.70;36.80;;;;;;5069271;28;20099;-73
2022/08/20 07:53:06;;;;;;;17.13;15.95;;;22.90;36.70;;;;;;5064634;28;20393;-73
2022/08/20 07:55:33;;;;;;;0.00;0.00;;;22.90;36.50;;;;;;5063299;28;20043;-73
2022/08/20 07:58:08;;;;;;;0.00;0.00;;;23.00;36.10;;;;;;5074603;28;20045;-74
2022/08/20 08:00:34;;;;;;;0.00;0.00;;;22.90;36.50;;;;;;5071434;28;20024;-72
2022/08/20 08:03:00;;;;;;;0.00;0.00;;;23.00;36.10;;;;;;5073030;28;20032;-73
2022/08/20 08:05:28;;;;;;;0.00;0.00;;;23.10;35.40;;;;;;5082537;28;20387;-73
2022/08/20 08:07:56;;;;;;;0.00;0.00;;;23.10;35.50;;;;;;5076830;28;20103;-72
2022/08/20 08:10:22;;;;;;;0.00;0.00;;;23.30;35.70;;;;;;5072365;28;20036;-72
2022/08/20 08:12:53;;;;;;;0.00;0.00;;;23.40;35.30;;;;;;5078328;28;20051;-72
2022/08/20 08:15:28;;;;;;;0.00;0.00;;;23.10;34.50;;;;;;5083050;28;20028;-72
2022/08/20 08:17:57;;;;;;;0.20;0.20;;;23.00;35.20;;;;;;5071297;28;20487;-72
2022/08/20 08:20:24;;;;;;;0.00;0.00;;;23.20;35.50;;;;;;5049383;28;20024;-72
2022/08/20 08:22:51;;;;;;;0.00;0.00;;;23.20;36.10;;;;;;5070203;28;20117;-72
2022/08/20 08:25:17;;;;;;;0.00;0.00;;;23.10;35.90;;;;;;5066807;28;20107;-72
2022/08/20 08:27:47;;;;;;;0.00;0.00;;;23.10;35.70;;;;;;5077304;28;20028;-72
2022/08/20 08:30:15;;;;;;;5.45;0.30;;;22.90;35.10;;;;;;5073073;28;20032;-71
2022/08/20 08:33:27;;;;;;;0.00;0.00;;;22.50;36.20;;;;;;5072182;28;20051;-74
2022/08/20 08:35:31;;;;;;;1.02;1.02;;;22.40;36.40;;;;;;5055848;28;20040;-73
2022/08/20 08:38:01;;;;;;;0.00;0.00;;;22.40;36.30;;;;;;5071357;28;20094;-72
2022/08/20 08:40:29;;;;;;;0.00;0.00;;;22.30;35.90;;;;;;5077566;28;20111;-73
2022/08/20 08:42:58;;;;;;;0.00;0.00;;;22.30;35.20;;;;;;5081157;28;20198;-72
2022/08/20 08:45:30;;;;;;;0.00;0.00;;;22.00;36.30;;;;;;5077506;28;20073;-73
2022/08/20 08:47:58;;;;;;;0.52;0.47;;;22.10;35.90;;;;;;5077696;28;20107;-73
2022/08/20 08:50:29;;;;;;;0.20;0.20;;;22.00;36.20;;;;;;5078009;28;20024;-73
2022/08/20 08:52:58;;;;;;;0.00;0.00;;;21.70;36.10;;;;;;5072884;28;20043;-73
2022/08/20 08:55:26;;;;;;;0.00;0.00;;;21.50;37.10;;;;;;5080655;28;20028;-72
2022/08/20 08:57:57;;;;;;;0.00;0.00;;;22.00;37.10;;;;;;5088011;28;20083;-73
2022/08/20 09:00:25;;;;;;;0.13;0.13;;;22.10;36.40;;;;;;5083638;28;20075;-72
2022/08/20 09:03:04;;;;;;;0.00;0.00;;;22.00;37.10;;;;;;5092872;28;20028;-73
2022/08/20 09:05:47;;;;;;;2.20;0.10;;;22.20;36.70;;;;;;5085893;28;20021;-73
2022/08/20 09:08:18;;;;;;;0.10;0.10;;;22.20;36.20;;;;;;5090747;28;20024;-73
2022/08/20 09:10:45;;;;;;;0.00;0.00;;;22.20;36.10;;;;;;5091888;28;20032;-73
2022/08/20 09:13:12;;;;;;;0.00;0.00;;;22.70;36.10;;;;;;5091797;28;20028;-73
2022/08/20 09:15:38;;;;;;;0.00;0.00;;;22.80;35.50;;;;;;5095304;28;20024;-74
2022/08/20 09:18:04;;;;;;;0.00;0.00;;;22.80;36.10;;;;;;5091514;28;20024;-74
2022/08/20 09:20:30;;;;;;;0.03;0.03;;;23.20;35.40;;;;;;5097003;28;20020;-73
2022/08/20 09:22:56;;;;;;;0.00;0.00;;;23.50;35.10;;;;;;5106049;28;20030;-74
2022/08/20 09:25:23;;;;;;;0.00;0.00;;;23.00;35.80;;;;;;5091253;28;20032;-73
2022/08/20 09:27:49;;;;;;;0.32;0.10;;;23.10;35.80;;;;;;5093776;28;20028;-72
2022/08/20 09:30:16;;;;;;;0.05;0.05;;;22.30;36.60;;;;;;5091833;28;20103;-75
2022/08/20 09:32:43;;;;;;;1.95;1.52;;;22.00;37.40;;;;;;5096409;28;20451;-75
2022/08/20 09:35:10;;;;;;;0.35;0.35;;;21.70;38.00;;;;;;5090725;28;20519;-74
2022/08/20 09:37:37;;;;;;;0.10;0.10;;;22.20;37.60;;;;;;5086328;28;20036;-74
2022/08/20 09:40:04;;;;;;;0.00;0.00;;;22.20;37.80;;;;;;5087248;28;20020;-74
2022/08/20 09:42:32;;;;;;;0.00;0.00;;;22.40;37.30;;;;;;5086818;28;20017;-73
2022/08/20 09:44:59;;;;;;;0.00;0.00;;;22.50;36.50;;;;;;5089594;28;20460;-73
2022/08/20 09:47:27;;;;;;;0.00;0.00;;;22.30;37.90;;;;;;5088590;28;20040;-72
2022/08/20 09:49:54;;;;;;;0.00;0.00;;;22.50;37.10;;;;;;5091659;28;20060;-72
2022/08/20 09:52:32;;;;;;;0.00;0.00;;;22.90;36.50;;;;;;5089178;28;20016;-73
2022/08/20 09:55:03;;;;;;;0.35;0.35;;;22.30;36.90;;;;;;5092196;28;20024;-74
2022/08/20 09:57:31;;;;;;;0.17;0.13;;;22.50;36.90;;;;;;5090864;28;20115;-74
2022/08/20 10:00:05;;;;;;;0.00;0.00;;;22.00;37.50;;;;;;5107296;28;20026;-73
2022/08/20 10:02:32;;;;;;;0.00;0.00;;;21.90;37.80;;;;;;5110848;28;20024;-73
2022/08/20 10:04:58;;;;;;;0.08;0.03;;;22.20;38.30;;;;;;5111846;28;20046;-73
2022/08/20 10:07:24;;;;;;;0.00;0.00;;;22.10;37.70;;;;;;5113580;28;20023;-73
2022/08/20 10:09:50;;;;;;;0.00;0.00;;;22.20;38.00;;;;;;5111307;28;20561;-73
2022/08/20 10:12:16;;;;;;;0.93;0.93;;;22.60;36.70;;;;;;5113414;28;20035;-74
2022/08/20 10:14:42;;;;;;;0.05;0.05;;;22.10;37.50;;;;;;5113385;28;20032;-72
2022/08/20 10:17:09;;;;;;;0.00;0.00;;;22.20;37.40;;;;;;5113892;28;20069;-73
2022/08/20 10:19:35;;;;;;;0.93;0.73;;;22.70;36.70;;;;;;5103690;28;20131;-73
2022/08/20 10:22:02;;;;;;;0.00;0.00;;;22.50;37.80;;;;;;5111552;28;20024;-74
2022/08/20 10:24:28;;;;;;;0.00;0.00;;;22.70;36.90;;;;;;5116409;27;20438;-75
2022/08/20 10:26:57;;;;;;;0.00;0.00;;;22.20;37.50;;;;;;5113333;28;20024;-74
2022/08/20 10:29:24;;;;;;;0.00;0.00;;;22.20;38.00;;;;;;5112066;28;20037;-75
2022/08/20 10:31:51;;;;;;;0.00;0.00;;;22.10;38.10;;;;;;5110126;28;20027;-74
2022/08/20 10:34:17;;;;;;;0.00;0.00;;;22.00;38.90;;;;;;5093632;28;20032;-74
2022/08/20 10:36:43;;;;;;;0.08;0.00;;;22.20;38.70;;;;;;5115390;27;20027;-75
2022/08/20 10:39:10;;;;;;;0.60;0.45;;;22.00;38.00;;;;;;5110003;28;20478;-73
2022/08/20 10:41:36;;;;;;;0.00;0.00;;;22.00;38.40;;;;;;5100739;28;20348;-76
2022/08/20 10:44:03;;;;;;;0.10;0.10;;;22.40;38.30;;;;;;5116878;27;20031;-75
2022/08/20 10:46:29;;;;;;;6.70;6.40;;;22.00;38.20;;;;;;5113010;28;20019;-75
2022/08/20 10:48:55;;;;;;;0.00;0.00;;;21.90;38.20;;;;;;5114546;27;20027;-74
2022/08/20 10:51:22;;;;;;;0.00;0.00;;;22.30;37.80;;;;;;5109144;28;20081;-74
2022/08/20 10:53:48;;;;;;;1.08;0.20;;;22.90;37.60;;;;;;5108160;28;20084;-74
2022/08/20 10:56:14;;;;;;;0.70;0.52;;;23.00;36.10;;;;;;5105977;28;20391;-75
2022/08/20 10:58:40;;;;;;;0.00;0.00;;;22.70;36.30;;;;;;5104660;28;20224;-75
2022/08/20 11:01:07;;;;;;;0.00;0.00;;;22.30;37.70;;;;;;5111709;28;20019;-75
2022/08/20 11:03:33;;;;;;;0.00;0.00;;;21.90;39.30;;;;;;5109262;28;20028;-75
2022/08/20 11:05:59;;;;;;;0.00;0.00;;;22.20;38.20;;;;;;5111740;28;20016;-75
2022/08/20 11:08:26;;;;;;;0.28;0.28;;;21.80;38.50;;;;;;5110370;28;20026;-75
2022/08/20 11:10:52;;;;;;;0.00;0.00;;;22.00;37.70;;;;;;5111229;28;20035;-75
2022/08/20 11:13:18;;;;;;;0.00;0.00;;;21.40;38.30;;;;;;5097977;28;20031;-75
2022/08/20 11:15:44;;;;;;;0.00;0.00;;;21.60;39.00;;;;;;5093617;28;20478;-74
2022/08/20 11:18:12;;;;;;;0.00;0.00;;;22.10;38.80;;;;;;5111028;27;20027;-75
2022/08/20 11:20:39;;;;;;;0.55;0.15;;;21.90;38.30;;;;;;5106027;27;20027;-76
2022/08/20 11:23:05;;;;;;;2.65;1.17;;;21.80;38.10;;;;;;5109700;28;20053;-75
2022/08/20 11:25:31;;;;;;;0.00;0.00;;;21.90;38.20;;;;;;5113278;28;20376;-75
2022/08/20 11:27:58;;;;;;;6.60;2.83;;;21.80;37.90;;;;;;5113083;28;20034;-75
2022/08/20 11:30:27;;;;;;;0.00;0.00;;;21.60;38.20;;;;;;5111932;28;20032;-76
2022/08/20 11:32:54;;;;;;;0.45;0.32;;;21.40;39.10;;;;;;5112580;28;20525;-76
2022/08/20 11:35:22;;;;;;;0.00;0.00;;;21.00;39.80;;;;;;5103388;28;20498;-75
2022/08/20 11:37:50;;;;;;;0.50;0.50;;;21.10;39.60;;;;;;5110471;28;20533;-74
2022/08/20 11:40:16;;;;;;;2.85;0.22;;;21.20;39.40;;;;;;5108793;28;20028;-74
2022/08/20 11:42:43;;;;;;;0.00;0.00;;;21.10;40.10;;;;;;5112633;28;20039;-75
2022/08/20 11:45:09;;;;;;;0.00;0.00;;;21.10;39.80;;;;;;5107876;28;20020;-75
2022/08/20 11:47:36;;;;;;;0.00;0.00;;;21.20;39.10;;;;;;5098605;28;20063;-76
2022/08/20 11:50:10;;;;;;;0.30;0.30;;;21.40;39.00;;;;;;5105124;28;20019;-74
2022/08/20 11:52:36;;;;;;;0.00;0.00;;;21.40;38.90;;;;;;5108970;28;20027;-75
2022/08/20 11:55:04;;;;;;;0.00;0.00;;;21.50;39.30;;;;;;5109801;28;20063;-75
2022/08/20 11:57:33;;;;;;;0.00;0.00;;;21.50;39.40;;;;;;5103826;28;20149;-74
2022/08/20 12:00:03;;;;;;;0.00;0.00;;;21.70;38.80;;;;;;5111846;28;20024;-74
2022/08/20 12:02:29;;;;;;;0.00;0.00;;;21.70;38.20;;;;;;5109125;28;20027;-73
2022/08/20 12:04:56;;;;;;;0.00;0.00;;;21.40;39.20;;;;;;5115246;28;20034;-75
2022/08/20 12:07:24;;;;;;;0.00;0.00;;;21.30;39.40;;;;;;5111358;28;20098;-75
2022/08/20 12:09:50;;;;;;;0.10;0.10;;;21.50;39.10;;;;;;5111990;28;20028;-75
2022/08/20 12:12:19;;;;;;;0.00;0.00;;;21.40;38.90;;;;;;5115198;28;20023;-75
2022/08/20 12:14:45;;;;;;;0.00;0.00;;;21.60;38.90;;;;;;5115863;28;20034;-75
2022/08/20 12:17:16;;;;;;;0.00;0.00;;;21.90;38.60;;;;;;5115958;28;20035;-75
2022/08/20 12:19:42;;;;;;;0.08;0.08;;;22.00;38.20;;;;;;5108558;28;20166;-75
2022/08/20 12:22:09;;;;;;;0.00;0.00;;;22.10;37.50;;;;;;5114471;28;20020;-76
2022/08/20 12:24:36;;;;;;;0.00;0.00;;;22.20;37.30;;;;;;5113553;28;20026;-75
2022/08/20 12:27:20;;;;;;;0.00;0.00;;;22.10;37.80;;;;;;5114114;28;20028;-75
2022/08/20 12:29:49;;;;;;;0.00;0.00;;;22.20;38.50;;;;;;5109991;28;20032;-75
2022/08/20 12:32:15;;;;;;;0.00;0.00;;;21.90;38.40;;;;;;5115513;28;20035;-75
2022/08/20 12:34:42;;;;;;;0.00;0.00;;;21.60;39.30;;;;;;5113637;28;20038;-75
2022/08/20 12:37:15;;;;;;;0.00;0.00;;;21.50;39.90;;;;;;5111965;28;20426;-73
2022/08/20 12:39:44;;;;;;;0.00;0.00;;;21.80;40.60;;;;;;5109262;28;20480;-74
2022/08/20 12:42:11;;;;;;;0.00;0.00;;;21.90;38.10;;;;;;5107082;28;20408;-75
2022/08/20 12:44:38;;;;;;;0.00;0.00;;;21.80;38.30;;;;;;5113080;28;20630;-75
2022/08/20 12:47:29;;;;;;;0.00;0.00;;;21.90;38.30;;;;;;5111786;28;20505;-75
2022/08/20 12:50:00;;;;;;;0.00;0.00;;;21.60;39.40;;;;;;5098842;28;20173;-74
2022/08/20 12:52:29;;;;;;;0.10;0.10;;;21.40;38.80;;;;;;5089582;28;20060;-76
2022/08/20 12:54:56;;;;;;;0.00;0.00;;;21.30;39.50;;;;;;5107894;28;20107;-75
2022/08/20 12:57:22;;;;;;;0.00;0.00;;;21.30;39.00;;;;;;5105680;27;20046;-75
2022/08/20 12:59:48;;;;;;;0.00;0.00;;;21.30;40.50;;;;;;5115974;27;20084;-75